sensor_id;sensor_type;location;lat;lon;timestamp;pressure;altitude;pressure_sealevel;temperature
15144;BMP180;7672;50.834;6.286;2023-06-10T00:02:26;99502.59;;;22.57
15144;BMP180;7672;50.834;6.286;2023-06-10T00:04:54;99507.88;;;22.54
15144;BMP180;7672;50.834;6.286;2023-06-10T00:07:22;99504.75;;;22.47
15144;BMP180;7672;50.834;6.286;2023-06-10T00:09:49;99510.88;;;22.45
15144;BMP180;7672;50.834;6.286;2023-06-10T00:12:17;99507.69;;;22.40
15144;BMP180;7672;50.834;6.286;2023-06-10T00:14:44;99509.59;;;22.37
15144;BMP180;7672;50.834;6.286;2023-06-10T00:17:11;99508.88;;;22.33
15144;BMP180;7672;50.834;6.286;2023-06-10T00:19:39;99509.03;;;22.30
15144;BMP180;7672;50.834;6.286;2023-06-10T00:22:08;99506.59;;;22.27
15144;BMP180;7672;50.834;6.286;2023-06-10T00:24:38;99506.78;;;22.23
15144;BMP180;7672;50.834;6.286;2023-06-10T00:27:06;99515.47;;;22.20
15144;BMP180;7672;50.834;6.286;2023-06-10T00:29:34;99512.25;;;22.15
15144;BMP180;7672;50.834;6.286;2023-06-10T00:32:01;99516.63;;;22.13
15144;BMP180;7672;50.834;6.286;2023-06-10T00:34:29;99514.22;;;22.10
15144;BMP180;7672;50.834;6.286;2023-06-10T00:36:57;99512.59;;;22.08
15144;BMP180;7672;50.834;6.286;2023-06-10T00:39:25;99510.09;;;22.06
15144;BMP180;7672;50.834;6.286;2023-06-10T00:41:52;99510.19;;;22.05
15144;BMP180;7672;50.834;6.286;2023-06-10T00:44:19;99511.16;;;22.02
15144;BMP180;7672;50.834;6.286;2023-06-10T00:46:46;99513.78;;;22.01
15144;BMP180;7672;50.834;6.286;2023-06-10T00:49:15;99507.09;;;21.97
15144;BMP180;7672;50.834;6.286;2023-06-10T00:51:43;99518.34;;;21.94
15144;BMP180;7672;50.834;6.286;2023-06-10T00:54:10;99514.19;;;21.92
15144;BMP180;7672;50.834;6.286;2023-06-10T00:56:41;99512.66;;;21.88
15144;BMP180;7672;50.834;6.286;2023-06-10T00:59:10;99514.50;;;21.84
15144;BMP180;7672;50.834;6.286;2023-06-10T01:01:37;99509.50;;;21.81
15144;BMP180;7672;50.834;6.286;2023-06-10T01:04:05;99510.47;;;21.79
15144;BMP180;7672;50.834;6.286;2023-06-10T01:07:19;99510.75;;;21.73
15144;BMP180;7672;50.834;6.286;2023-06-10T01:10:11;99508.50;;;21.66
15144;BMP180;7672;50.834;6.286;2023-06-10T01:12:55;99502.69;;;21.62
15144;BMP180;7672;50.834;6.286;2023-06-10T01:15:26;99504.53;;;21.59
15144;BMP180;7672;50.834;6.286;2023-06-10T01:18:02;99509.81;;;21.56
15144;BMP180;7672;50.834;6.286;2023-06-10T01:20:32;99511.53;;;21.55
15144;BMP180;7672;50.834;6.286;2023-06-10T01:23:00;99503.91;;;21.54
15144;BMP180;7672;50.834;6.286;2023-06-10T01:25:30;99507.34;;;21.53
15144;BMP180;7672;50.834;6.286;2023-06-10T01:31:29;99508.63;;;21.43
15144;BMP180;7672;50.834;6.286;2023-06-10T01:34:03;99513.00;;;21.41
15144;BMP180;7672;50.834;6.286;2023-06-10T01:36:35;99509.66;;;21.39
15144;BMP180;7672;50.834;6.286;2023-06-10T01:39:04;99507.16;;;21.37
15144;BMP180;7672;50.834;6.286;2023-06-10T01:41:34;99512.44;;;21.34
15144;BMP180;7672;50.834;6.286;2023-06-10T01:44:01;99513.41;;;21.32
15144;BMP180;7672;50.834;6.286;2023-06-10T01:46:29;99521.22;;;21.29
15144;BMP180;7672;50.834;6.286;2023-06-10T01:48:56;99513.63;;;21.26
15144;BMP180;7672;50.834;6.286;2023-06-10T01:51:23;99521.50;;;21.23
15144;BMP180;7672;50.834;6.286;2023-06-10T01:53:50;99519.81;;;21.22
15144;BMP180;7672;50.834;6.286;2023-06-10T01:56:17;99516.44;;;21.20
15144;BMP180;7672;50.834;6.286;2023-06-10T01:58:46;99518.28;;;21.18
15144;BMP180;7672;50.834;6.286;2023-06-10T02:01:14;99524.31;;;21.17
15144;BMP180;7672;50.834;6.286;2023-06-10T02:03:41;99518.38;;;21.15
15144;BMP180;7672;50.834;6.286;2023-06-10T02:06:08;99526.16;;;21.13
15144;BMP180;7672;50.834;6.286;2023-06-10T02:08:35;99523.72;;;21.11
15144;BMP180;7672;50.834;6.286;2023-06-10T02:11:02;99524.69;;;21.08
15144;BMP180;7672;50.834;6.286;2023-06-10T02:13:30;99526.59;;;21.03
15144;BMP180;7672;50.834;6.286;2023-06-10T02:15:57;99524.19;;;20.99
15144;BMP180;7672;50.834;6.286;2023-06-10T02:18:28;99520.88;;;20.97
15144;BMP180;7672;50.834;6.286;2023-06-10T02:20:55;99528.75;;;20.92
15144;BMP180;7672;50.834;6.286;2023-06-10T02:23:22;99532.25;;;20.91
15144;BMP180;7672;50.834;6.286;2023-06-10T02:25:49;99525.59;;;20.86
15144;BMP180;7672;50.834;6.286;2023-06-10T02:28:17;99524.91;;;20.82
15144;BMP180;7672;50.834;6.286;2023-06-10T02:30:45;99536.13;;;20.80
15144;BMP180;7672;50.834;6.286;2023-06-10T02:33:13;99536.31;;;20.75
15144;BMP180;7672;50.834;6.286;2023-06-10T02:35:41;99528.72;;;20.72
15144;BMP180;7672;50.834;6.286;2023-06-10T02:38:09;99527.91;;;20.70
15144;BMP180;7672;50.834;6.286;2023-06-10T02:40:36;99528.91;;;20.66
15144;BMP180;7672;50.834;6.286;2023-06-10T02:43:03;99529.06;;;20.63
15144;BMP180;7672;50.834;6.286;2023-06-10T02:45:31;99534.41;;;20.57
15144;BMP180;7672;50.834;6.286;2023-06-10T02:48:00;99531.97;;;20.54
15144;BMP180;7672;50.834;6.286;2023-06-10T02:50:27;99534.66;;;20.51
15144;BMP180;7672;50.834;6.286;2023-06-10T02:53:20;99529.72;;;20.46
15144;BMP180;7672;50.834;6.286;2023-06-10T02:55:53;99526.47;;;20.42
15144;BMP180;7672;50.834;6.286;2023-06-10T02:58:21;99528.19;;;20.42
15144;BMP180;7672;50.834;6.286;2023-06-10T03:00:48;99525.75;;;20.39
15144;BMP180;7672;50.834;6.286;2023-06-10T03:03:15;99536.00;;;20.39
15144;BMP180;7672;50.834;6.286;2023-06-10T03:05:51;99536.13;;;20.36
15144;BMP180;7672;50.834;6.286;2023-06-10T03:08:20;99541.31;;;20.34
15144;BMP180;7672;50.834;6.286;2023-06-10T03:10:47;99536.22;;;20.33
15144;BMP180;7672;50.834;6.286;2023-06-10T03:13:17;99543.22;;;20.29
15144;BMP180;7672;50.834;6.286;2023-06-10T03:15:44;99533.91;;;20.27
15144;BMP180;7672;50.834;6.286;2023-06-10T03:18:16;99544.28;;;20.24
15144;BMP180;7672;50.834;6.286;2023-06-10T03:20:44;99540.28;;;20.17
15144;BMP180;7672;50.834;6.286;2023-06-10T03:23:11;99537.81;;;20.14
15144;BMP180;7672;50.834;6.286;2023-06-10T03:25:39;99544.78;;;20.10
15144;BMP180;7672;50.834;6.286;2023-06-10T03:28:08;99544.06;;;20.07
15144;BMP180;7672;50.834;6.286;2023-06-10T03:30:36;99545.84;;;20.05
15144;BMP180;7672;50.834;6.286;2023-06-10T03:33:03;99544.22;;;20.02
15144;BMP180;7672;50.834;6.286;2023-06-10T03:35:30;99549.34;;;20.02
15144;BMP180;7672;50.834;6.286;2023-06-10T03:37:59;99555.41;;;20.00
15144;BMP180;7672;50.834;6.286;2023-06-10T03:40:26;99558.91;;;19.99
15144;BMP180;7672;50.834;6.286;2023-06-10T03:42:53;99555.47;;;19.98
15144;BMP180;7672;50.834;6.286;2023-06-10T03:45:21;99556.44;;;19.96
15144;BMP180;7672;50.834;6.286;2023-06-10T03:47:48;99556.44;;;19.96
15144;BMP180;7672;50.834;6.286;2023-06-10T03:50:19;99558.09;;;19.97
15144;BMP180;7672;50.834;6.286;2023-06-10T03:52:47;99557.28;;;19.96
15144;BMP180;7672;50.834;6.286;2023-06-10T03:55:17;99562.28;;;19.99
15144;BMP180;7672;50.834;6.286;2023-06-10T03:57:45;99559.59;;;20.02
15144;BMP180;7672;50.834;6.286;2023-06-10T04:00:13;99562.91;;;20.06
15144;BMP180;7672;50.834;6.286;2023-06-10T04:02:46;99566.16;;;20.11
15144;BMP180;7672;50.834;6.286;2023-06-10T04:05:22;99562.56;;;20.15
15144;BMP180;7672;50.834;6.286;2023-06-10T04:07:51;99567.44;;;20.22
15144;BMP180;7672;50.834;6.286;2023-06-10T04:10:18;99570.59;;;20.29
15144;BMP180;7672;50.834;6.286;2023-06-10T04:12:45;99571.16;;;20.37
15144;BMP180;7672;50.834;6.286;2023-06-10T04:15:13;99575.91;;;20.47
15144;BMP180;7672;50.834;6.286;2023-06-10T04:17:41;99566.13;;;20.56
15144;BMP180;7672;50.834;6.286;2023-06-10T04:20:10;99573.31;;;20.70
15144;BMP180;7672;50.834;6.286;2023-06-10T04:22:40;99575.34;;;20.83
15144;BMP180;7672;50.834;6.286;2023-06-10T04:25:09;99577.34;;;20.98
15144;BMP180;7672;50.834;6.286;2023-06-10T04:27:39;99579.31;;;21.13
15144;BMP180;7672;50.834;6.286;2023-06-10T04:30:06;99578.63;;;21.29
15144;BMP180;7672;50.834;6.286;2023-06-10T04:32:36;99578.00;;;21.44
15144;BMP180;7672;50.834;6.286;2023-06-10T04:35:06;99583.47;;;21.57
15144;BMP180;7672;50.834;6.286;2023-06-10T04:37:34;99571.81;;;21.70
15144;BMP180;7672;50.834;6.286;2023-06-10T04:40:01;99578.16;;;21.81
15144;BMP180;7672;50.834;6.286;2023-06-10T04:42:29;99568.22;;;21.92
15144;BMP180;7672;50.834;6.286;2023-06-10T04:44:56;99569.50;;;22.02
15144;BMP180;7672;50.834;6.286;2023-06-10T04:47:26;99569.78;;;22.14
15144;BMP180;7672;50.834;6.286;2023-06-10T04:49:53;99572.63;;;22.28
15144;BMP180;7672;50.834;6.286;2023-06-10T04:52:20;99567.75;;;22.40
15144;BMP180;7672;50.834;6.286;2023-06-10T04:54:48;99577.41;;;22.54
15144;BMP180;7672;50.834;6.286;2023-06-10T04:57:15;99567.47;;;22.65
15144;BMP180;7672;50.834;6.286;2023-06-10T04:59:42;99580.53;;;22.79
15144;BMP180;7672;50.834;6.286;2023-06-10T05:02:09;99580.72;;;22.93
15144;BMP180;7672;50.834;6.286;2023-06-10T05:04:36;99575.94;;;23.03
15144;BMP180;7672;50.834;6.286;2023-06-10T05:07:04;99566.69;;;23.16
15144;BMP180;7672;50.834;6.286;2023-06-10T05:09:31;99573.69;;;23.31
15144;BMP180;7672;50.834;6.286;2023-06-10T05:11:59;99579.84;;;23.46
15144;BMP180;7672;50.834;6.286;2023-06-10T05:14:26;99575.50;;;23.63
15144;BMP180;7672;50.834;6.286;2023-06-10T05:16:54;99568.03;;;23.75
15144;BMP180;7672;50.834;6.286;2023-06-10T05:19:21;99572.47;;;23.89
15144;BMP180;7672;50.834;6.286;2023-06-10T05:21:48;99565.75;;;24.02
15144;BMP180;7672;50.834;6.286;2023-06-10T05:24:15;99576.94;;;24.18
15144;BMP180;7672;50.834;6.286;2023-06-10T05:26:42;99573.72;;;24.29
15144;BMP180;7672;50.834;6.286;2023-06-10T05:29:09;99574.84;;;24.41
15144;BMP180;7672;50.834;6.286;2023-06-10T05:31:36;99568.03;;;24.55
15144;BMP180;7672;50.834;6.286;2023-06-10T05:34:03;99574.19;;;24.68
15144;BMP180;7672;50.834;6.286;2023-06-10T05:36:30;99582.69;;;24.86
15144;BMP180;7672;50.834;6.286;2023-06-10T05:38:58;99585.44;;;24.98
15144;BMP180;7672;50.834;6.286;2023-06-10T05:41:24;99575.34;;;25.09
15144;BMP180;7672;50.834;6.286;2023-06-10T05:43:52;99574.72;;;25.19
15144;BMP180;7672;50.834;6.286;2023-06-10T05:46:20;99581.63;;;25.34
15144;BMP180;7672;50.834;6.286;2023-06-10T05:48:47;99582.59;;;25.47
15144;BMP180;7672;50.834;6.286;2023-06-10T05:51:15;99576.53;;;25.62
15144;BMP180;7672;50.834;6.286;2023-06-10T05:53:57;99576.41;;;25.79
15144;BMP180;7672;50.834;6.286;2023-06-10T05:56:24;99578.81;;;25.96
15144;BMP180;7672;50.834;6.286;2023-06-10T05:58:52;99571.72;;;26.13
15144;BMP180;7672;50.834;6.286;2023-06-10T06:01:20;99583.53;;;26.31
15144;BMP180;7672;50.834;6.286;2023-06-10T06:03:47;99581.59;;;26.48
15144;BMP180;7672;50.834;6.286;2023-06-10T06:06:14;99582.97;;;26.68
15144;BMP180;7672;50.834;6.286;2023-06-10T06:08:41;99584.41;;;26.85
15144;BMP180;7672;50.834;6.286;2023-06-10T06:11:08;99585.03;;;27.03
15144;BMP180;7672;50.834;6.286;2023-06-10T06:13:35;99591.63;;;27.21
15144;BMP180;7672;50.834;6.286;2023-06-10T06:16:02;99592.91;;;27.40
15144;BMP180;7672;50.834;6.286;2023-06-10T06:18:30;99598.78;;;27.56
15144;BMP180;7672;50.834;6.286;2023-06-10T06:20:57;99590.19;;;27.68
15144;BMP180;7672;50.834;6.286;2023-06-10T06:23:24;99593.63;;;27.81
15144;BMP180;7672;50.834;6.286;2023-06-10T06:25:51;99599.69;;;27.94
15144;BMP180;7672;50.834;6.286;2023-06-10T06:28:18;99593.75;;;28.04
15144;BMP180;7672;50.834;6.286;2023-06-10T06:30:47;99594.03;;;28.12
15144;BMP180;7672;50.834;6.286;2023-06-10T06:33:15;99591.06;;;28.18
15144;BMP180;7672;50.834;6.286;2023-06-10T06:35:42;99588.75;;;28.26
15144;BMP180;7672;50.834;6.286;2023-06-10T06:38:09;99597.81;;;28.33
15144;BMP180;7672;50.834;6.286;2023-06-10T06:40:36;99608.50;;;28.41
15144;BMP180;7672;50.834;6.286;2023-06-10T06:43:03;99603.69;;;28.47
15144;BMP180;7672;50.834;6.286;2023-06-10T06:45:42;99608.38;;;28.55
15144;BMP180;7672;50.834;6.286;2023-06-10T06:48:09;99605.31;;;28.61
15144;BMP180;7672;50.834;6.286;2023-06-10T06:50:36;99604.06;;;28.66
15144;BMP180;7672;50.834;6.286;2023-06-10T06:53:04;99613.22;;;28.72
15144;BMP180;7672;50.834;6.286;2023-06-10T06:55:31;99611.16;;;28.76
15144;BMP180;7672;50.834;6.286;2023-06-10T06:57:58;99611.66;;;28.81
15144;BMP180;7672;50.834;6.286;2023-06-10T07:00:30;99612.97;;;28.87
15144;BMP180;7672;50.834;6.286;2023-06-10T07:02:57;99617.13;;;28.89
15144;BMP180;7672;50.834;6.286;2023-06-10T07:05:25;99613.38;;;28.93
15144;BMP180;7672;50.834;6.286;2023-06-10T07:07:55;99613.97;;;28.97
15144;BMP180;7672;50.834;6.286;2023-06-10T07:10:26;99616.97;;;29.03
15144;BMP180;7672;50.834;6.286;2023-06-10T07:12:54;99617.34;;;29.10
15144;BMP180;7672;50.834;6.286;2023-06-10T07:15:21;99610.16;;;29.13
15144;BMP180;7672;50.834;6.286;2023-06-10T07:17:49;99607.00;;;29.21
15144;BMP180;7672;50.834;6.286;2023-06-10T07:20:16;99612.47;;;29.29
15144;BMP180;7672;50.834;6.286;2023-06-10T07:22:44;99611.63;;;29.40
15144;BMP180;7672;50.834;6.286;2023-06-10T07:25:11;99619.25;;;29.54
15144;BMP180;7672;50.834;6.286;2023-06-10T07:27:39;99619.19;;;29.67
15144;BMP180;7672;50.834;6.286;2023-06-10T07:30:07;99616.78;;;29.87
15144;BMP180;7672;50.834;6.286;2023-06-10T07:32:35;99620.22;;;30.09
15144;BMP180;7672;50.834;6.286;2023-06-10T07:35:02;99609.84;;;30.31
15144;BMP180;7672;50.834;6.286;2023-06-10T07:37:29;99607.84;;;30.57
15144;BMP180;7672;50.834;6.286;2023-06-10T07:39:56;99612.53;;;30.84
15144;BMP180;7672;50.834;6.286;2023-06-10T07:42:23;99616.84;;;31.17
15144;BMP180;7672;50.834;6.286;2023-06-10T07:44:51;99615.19;;;31.47
15144;BMP180;7672;50.834;6.286;2023-06-10T07:47:18;99613.19;;;31.71
15144;BMP180;7672;50.834;6.286;2023-06-10T07:49:45;99597.94;;;31.96
15144;BMP180;7672;50.834;6.286;2023-06-10T07:52:12;99610.22;;;32.25
15144;BMP180;7672;50.834;6.286;2023-06-10T07:54:39;99615.22;;;32.58
15144;BMP180;7672;50.834;6.286;2023-06-10T07:57:06;99606.88;;;32.92
15144;BMP180;7672;50.834;6.286;2023-06-10T07:59:34;99609.00;;;33.26
15144;BMP180;7672;50.834;6.286;2023-06-10T08:02:01;99612.19;;;33.58
15144;BMP180;7672;50.834;6.286;2023-06-10T08:04:28;99610.06;;;33.90
15144;BMP180;7672;50.834;6.286;2023-06-10T08:06:57;99611.94;;;34.26
15144;BMP180;7672;50.834;6.286;2023-06-10T08:09:32;99613.72;;;34.61
15144;BMP180;7672;50.834;6.286;2023-06-10T08:12:03;99609.53;;;34.95
15144;BMP180;7672;50.834;6.286;2023-06-10T08:14:31;99612.13;;;35.39
15144;BMP180;7672;50.834;6.286;2023-06-10T08:16:58;99607.41;;;35.85
15144;BMP180;7672;50.834;6.286;2023-06-10T08:19:25;99608.34;;;36.27
15144;BMP180;7672;50.834;6.286;2023-06-10T08:21:52;99607.53;;;36.68
15144;BMP180;7672;50.834;6.286;2023-06-10T08:24:19;99608.16;;;37.11
15144;BMP180;7672;50.834;6.286;2023-06-10T08:26:47;99607.91;;;37.54
15144;BMP180;7672;50.834;6.286;2023-06-10T08:29:14;99608.41;;;37.89
15144;BMP180;7672;50.834;6.286;2023-06-10T08:31:43;99610.50;;;38.17
15144;BMP180;7672;50.834;6.286;2023-06-10T08:34:11;99607.94;;;38.39
15144;BMP180;7672;50.834;6.286;2023-06-10T08:36:38;99605.41;;;38.62
15144;BMP180;7672;50.834;6.286;2023-06-10T08:39:07;99609.41;;;38.88
15144;BMP180;7672;50.834;6.286;2023-06-10T08:41:42;99612.19;;;39.17
15144;BMP180;7672;50.834;6.286;2023-06-10T08:44:30;99610.00;;;39.51
15144;BMP180;7672;50.834;6.286;2023-06-10T08:47:00;99623.63;;;39.76
15144;BMP180;7672;50.834;6.286;2023-06-10T08:49:30;99619.03;;;39.93
15144;BMP180;7672;50.834;6.286;2023-06-10T08:52:02;99618.78;;;40.17
15144;BMP180;7672;50.834;6.286;2023-06-10T08:54:35;99623.72;;;40.48
15144;BMP180;7672;50.834;6.286;2023-06-10T08:57:05;99619.81;;;40.73
15144;BMP180;7672;50.834;6.286;2023-06-10T08:59:33;99618.28;;;40.99
15144;BMP180;7672;50.834;6.286;2023-06-10T09:02:02;99619.81;;;41.29
15144;BMP180;7672;50.834;6.286;2023-06-10T09:04:30;99622.81;;;41.62
15144;BMP180;7672;50.834;6.286;2023-06-10T09:06:57;99625.94;;;41.92
15144;BMP180;7672;50.834;6.286;2023-06-10T09:09:28;99616.94;;;42.21
15144;BMP180;7672;50.834;6.286;2023-06-10T09:11:56;99621.75;;;42.44
15144;BMP180;7672;50.834;6.286;2023-06-10T09:14:23;99624.81;;;42.75
15144;BMP180;7672;50.834;6.286;2023-06-10T09:16:50;99611.63;;;43.07
15144;BMP180;7672;50.834;6.286;2023-06-10T09:19:18;99622.56;;;43.45
15144;BMP180;7672;50.834;6.286;2023-06-10T09:21:47;99614.78;;;43.56
15144;BMP180;7672;50.834;6.286;2023-06-10T09:24:15;99616.81;;;43.54
15144;BMP180;7672;50.834;6.286;2023-06-10T09:26:43;99613.34;;;43.66
15144;BMP180;7672;50.834;6.286;2023-06-10T09:29:11;99615.97;;;43.73
15144;BMP180;7672;50.834;6.286;2023-06-10T09:31:39;99617.22;;;43.83
15144;BMP180;7672;50.834;6.286;2023-06-10T09:34:15;99613.72;;;44.02
15144;BMP180;7672;50.834;6.286;2023-06-10T09:36:44;99620.47;;;44.24
15144;BMP180;7672;50.834;6.286;2023-06-10T09:39:17;99611.78;;;44.41
15144;BMP180;7672;50.834;6.286;2023-06-10T09:41:46;99615.25;;;44.55
15144;BMP180;7672;50.834;6.286;2023-06-10T09:44:16;99617.88;;;44.68
15144;BMP180;7672;50.834;6.286;2023-06-10T09:46:50;99616.00;;;44.68
15144;BMP180;7672;50.834;6.286;2023-06-10T09:49:21;99625.88;;;44.68
15144;BMP180;7672;50.834;6.286;2023-06-10T09:51:53;99619.94;;;44.59
15144;BMP180;7672;50.834;6.286;2023-06-10T09:54:21;99625.72;;;44.50
15144;BMP180;7672;50.834;6.286;2023-06-10T09:56:51;99626.59;;;44.31
15144;BMP180;7672;50.834;6.286;2023-06-10T09:59:29;99609.41;;;44.21
15144;BMP180;7672;50.834;6.286;2023-06-10T10:01:59;99624.38;;;44.22
15144;BMP180;7672;50.834;6.286;2023-06-10T10:04:27;99622.25;;;44.36
15144;BMP180;7672;50.834;6.286;2023-06-10T10:06:55;99617.13;;;44.41
15144;BMP180;7672;50.834;6.286;2023-06-10T10:09:22;99636.81;;;44.34
15144;BMP180;7672;50.834;6.286;2023-06-10T10:11:52;99623.56;;;44.15
15144;BMP180;7672;50.834;6.286;2023-06-10T10:14:22;99621.72;;;44.02
15144;BMP180;7672;50.834;6.286;2023-06-10T10:16:51;99619.66;;;44.17
15144;BMP180;7672;50.834;6.286;2023-06-10T10:19:31;99612.03;;;44.33
15144;BMP180;7672;50.834;6.286;2023-06-10T10:22:07;99614.50;;;44.28
15144;BMP180;7672;50.834;6.286;2023-06-10T10:24:59;99617.78;;;44.11
15144;BMP180;7672;50.834;6.286;2023-06-10T10:27:33;99603.47;;;44.19
15144;BMP180;7672;50.834;6.286;2023-06-10T10:30:04;99607.97;;;44.25
15144;BMP180;7672;50.834;6.286;2023-06-10T10:32:43;99611.22;;;44.33
15144;BMP180;7672;50.834;6.286;2023-06-10T10:35:21;99601.59;;;44.32
15144;BMP180;7672;50.834;6.286;2023-06-10T10:37:54;99604.00;;;44.40
15144;BMP180;7672;50.834;6.286;2023-06-10T10:40:23;99603.97;;;44.46
15144;BMP180;7672;50.834;6.286;2023-06-10T10:42:52;99600.75;;;44.38
15144;BMP180;7672;50.834;6.286;2023-06-10T10:45:22;99606.31;;;44.24
15144;BMP180;7672;50.834;6.286;2023-06-10T10:47:53;99596.31;;;44.19
15144;BMP180;7672;50.834;6.286;2023-06-10T10:50:23;99618.03;;;44.16
15144;BMP180;7672;50.834;6.286;2023-06-10T10:53:01;99605.31;;;43.92
15144;BMP180;7672;50.834;6.286;2023-06-10T10:55:28;99608.63;;;43.75
15144;BMP180;7672;50.834;6.286;2023-06-10T10:58:04;99608.03;;;43.54
15144;BMP180;7672;50.834;6.286;2023-06-10T11:00:36;99610.44;;;43.29
15144;BMP180;7672;50.834;6.286;2023-06-10T11:03:06;99605.28;;;43.15
15144;BMP180;7672;50.834;6.286;2023-06-10T11:05:46;99589.53;;;43.13
15144;BMP180;7672;50.834;6.286;2023-06-10T11:10:59;99599.16;;;43.01
15144;BMP180;7672;50.834;6.286;2023-06-10T11:13:27;99591.25;;;42.74
15144;BMP180;7672;50.834;6.286;2023-06-10T11:15:58;99592.38;;;42.52
15144;BMP180;7672;50.834;6.286;2023-06-10T11:18:40;99584.84;;;42.22
15144;BMP180;7672;50.834;6.286;2023-06-10T11:21:08;99592.75;;;41.82
15144;BMP180;7672;50.834;6.286;2023-06-10T11:23:40;99580.88;;;41.30
15144;BMP180;7672;50.834;6.286;2023-06-10T11:31:29;99581.00;;;39.71
15144;BMP180;7672;50.834;6.286;2023-06-10T11:34:00;99583.84;;;39.11
15144;BMP180;7672;50.834;6.286;2023-06-10T11:36:28;99578.88;;;38.55
15144;BMP180;7672;50.834;6.286;2023-06-10T11:39:01;99559.19;;;38.12
15144;BMP180;7672;50.834;6.286;2023-06-10T11:41:30;99555.97;;;37.78
15144;BMP180;7672;50.834;6.286;2023-06-10T11:46:31;99560.56;;;37.05
15144;BMP180;7672;50.834;6.286;2023-06-10T11:49:00;99564.59;;;36.67
15144;BMP180;7672;50.834;6.286;2023-06-10T11:51:29;99567.03;;;36.28
15144;BMP180;7672;50.834;6.286;2023-06-10T11:53:57;99561.44;;;35.89
15144;BMP180;7672;50.834;6.286;2023-06-10T11:56:26;99561.03;;;35.59
15144;BMP180;7672;50.834;6.286;2023-06-10T11:59:03;99562.25;;;35.30
15144;BMP180;7672;50.834;6.286;2023-06-10T12:01:35;99553.03;;;35.09
15144;BMP180;7672;50.834;6.286;2023-06-10T12:04:09;99554.81;;;34.91
15144;BMP180;7672;50.834;6.286;2023-06-10T12:06:46;99556.81;;;34.79
15144;BMP180;7672;50.834;6.286;2023-06-10T12:12:02;99548.69;;;34.55
15144;BMP180;7672;50.834;6.286;2023-06-10T12:17:37;99544.06;;;34.40
15144;BMP180;7672;50.834;6.286;2023-06-10T12:20:25;99542.63;;;34.46
15144;BMP180;7672;50.834;6.286;2023-06-10T12:22:52;99538.22;;;34.46
15144;BMP180;7672;50.834;6.286;2023-06-10T12:25:26;99530.63;;;34.43
15144;BMP180;7672;50.834;6.286;2023-06-10T12:27:58;99531.75;;;34.41
15144;BMP180;7672;50.834;6.286;2023-06-10T12:30:27;99536.19;;;34.40
15144;BMP180;7672;50.834;6.286;2023-06-10T12:32:55;99532.88;;;34.38
15144;BMP180;7672;50.834;6.286;2023-06-10T12:35:27;99538.66;;;34.42
15144;BMP180;7672;50.834;6.286;2023-06-10T12:38:04;99539.34;;;34.44
15144;BMP180;7672;50.834;6.286;2023-06-10T12:40:37;99532.13;;;34.46
15144;BMP180;7672;50.834;6.286;2023-06-10T12:43:06;99539.19;;;34.45
15144;BMP180;7672;50.834;6.286;2023-06-10T12:45:39;99528.84;;;34.88
15144;BMP180;7672;50.834;6.286;2023-06-10T12:48:16;99534.91;;;34.71
15144;BMP180;7672;50.834;6.286;2023-06-10T12:50:46;99528.53;;;34.56
15144;BMP180;7672;50.834;6.286;2023-06-10T12:53:14;99537.16;;;34.49
15144;BMP180;7672;50.834;6.286;2023-06-10T12:55:41;99526.13;;;34.36
15144;BMP180;7672;50.834;6.286;2023-06-10T12:58:08;99528.41;;;34.21
15144;BMP180;7672;50.834;6.286;2023-06-10T13:00:36;99529.44;;;34.11
15144;BMP180;7672;50.834;6.286;2023-06-10T13:03:04;99520.47;;;34.04
15144;BMP180;7672;50.834;6.286;2023-06-10T13:05:34;99516.50;;;34.00
15144;BMP180;7672;50.834;6.286;2023-06-10T13:08:02;99522.13;;;34.05
15144;BMP180;7672;50.834;6.286;2023-06-10T13:10:30;99508.28;;;34.12
15144;BMP180;7672;50.834;6.286;2023-06-10T13:12:57;99504.81;;;34.21
15144;BMP180;7672;50.834;6.286;2023-06-10T13:15:24;99529.19;;;34.31
15144;BMP180;7672;50.834;6.286;2023-06-10T13:17:53;99523.38;;;34.37
15144;BMP180;7672;50.834;6.286;2023-06-10T13:20:20;99524.03;;;34.49
15144;BMP180;7672;50.834;6.286;2023-06-10T13:22:48;99518.53;;;34.59
15144;BMP180;7672;50.834;6.286;2023-06-10T13:25:16;99521.41;;;34.66
15144;BMP180;7672;50.834;6.286;2023-06-10T13:27:43;99511.28;;;34.71
15144;BMP180;7672;50.834;6.286;2023-06-10T13:30:11;99508.59;;;34.63
15144;BMP180;7672;50.834;6.286;2023-06-10T13:32:38;99518.19;;;34.45
15144;BMP180;7672;50.834;6.286;2023-06-10T13:35:06;99505.66;;;34.22
15144;BMP180;7672;50.834;6.286;2023-06-10T13:37:35;99506.56;;;34.03
15144;BMP180;7672;50.834;6.286;2023-06-10T13:40:02;99517.63;;;33.88
15144;BMP180;7672;50.834;6.286;2023-06-10T13:42:30;99503.78;;;34.05
15144;BMP180;7672;50.834;6.286;2023-06-10T13:44:57;99503.72;;;33.78
15144;BMP180;7672;50.834;6.286;2023-06-10T13:47:24;99503.38;;;33.64
15144;BMP180;7672;50.834;6.286;2023-06-10T13:49:52;99493.75;;;33.55
15144;BMP180;7672;50.834;6.286;2023-06-10T13:52:19;99496.63;;;33.52
15144;BMP180;7672;50.834;6.286;2023-06-10T13:54:47;99499.50;;;33.49
15144;BMP180;7672;50.834;6.286;2023-06-10T13:57:14;99503.50;;;33.43
15144;BMP180;7672;50.834;6.286;2023-06-10T13:59:41;99499.81;;;33.36
15144;BMP180;7672;50.834;6.286;2023-06-10T14:02:08;99502.03;;;33.31
15144;BMP180;7672;50.834;6.286;2023-06-10T14:04:36;99493.75;;;33.26
15144;BMP180;7672;50.834;6.286;2023-06-10T14:07:03;99487.56;;;33.27
15144;BMP180;7672;50.834;6.286;2023-06-10T14:09:30;99492.50;;;33.30
15144;BMP180;7672;50.834;6.286;2023-06-10T14:11:57;99493.19;;;33.32
15144;BMP180;7672;50.834;6.286;2023-06-10T14:14:25;99492.25;;;33.33
15144;BMP180;7672;50.834;6.286;2023-06-10T14:16:52;99484.38;;;33.33
15144;BMP180;7672;50.834;6.286;2023-06-10T14:19:19;99479.53;;;33.38
15144;BMP180;7672;50.834;6.286;2023-06-10T14:21:46;99478.94;;;33.44
15144;BMP180;7672;50.834;6.286;2023-06-10T14:24:13;99476.59;;;33.51
15144;BMP180;7672;50.834;6.286;2023-06-10T14:26:41;99481.31;;;33.57
15144;BMP180;7672;50.834;6.286;2023-06-10T14:29:08;99480.03;;;33.61
15144;BMP180;7672;50.834;6.286;2023-06-10T14:31:35;99476.47;;;33.62
15144;BMP180;7672;50.834;6.286;2023-06-10T14:34:02;99476.22;;;33.55
15144;BMP180;7672;50.834;6.286;2023-06-10T14:36:29;99477.84;;;33.47
15144;BMP180;7672;50.834;6.286;2023-06-10T14:38:56;99466.84;;;33.53
15144;BMP180;7672;50.834;6.286;2023-06-10T14:41:24;99470.47;;;33.79
15144;BMP180;7672;50.834;6.286;2023-06-10T14:43:52;99464.59;;;33.48
15144;BMP180;7672;50.834;6.286;2023-06-10T14:46:19;99453.34;;;33.29
15144;BMP180;7672;50.834;6.286;2023-06-10T14:48:49;99452.81;;;33.25
15144;BMP180;7672;50.834;6.286;2023-06-10T14:51:17;99459.84;;;33.25
15144;BMP180;7672;50.834;6.286;2023-06-10T14:53:44;99466.88;;;33.24